Time;durP1;ratioP1;P1;durP2;ratioP2;P2;SDS_P1;SDS_P2;PMS_P1;PMS_P2;Temp;Humidity;BMP_temperature;BMP_pressure;BME280_temperature;BME280_humidity;BME280_pressure;Samples;Min_cycle;Max_cycle;Signal;HPM_P1;HPM_P2
2022/10/26 00:02:20;;;;;;;;;;;10.70;99.90;;;;;;5067131;28;19935;-83
2022/10/26 00:04:45;;;;;;;;;;;10.70;99.90;;;;;;5070364;28;19958;-82
2022/10/26 00:07:11;;;;;;;;;;;10.70;99.90;;;;;;5074275;28;19926;-82
2022/10/26 00:09:36;;;;;;;;;;;10.50;99.90;;;;;;5073174;28;19920;-82
2022/10/26 00:12:02;;;;;;;;;;;10.60;99.90;;;;;;5058765;28;20291;-83
2022/10/26 00:14:28;;;;;;;;;;;10.50;99.90;;;;;;5074668;28;20138;-82
2022/10/26 00:16:53;;;;;;;;;;;10.70;99.90;;;;;;5072868;28;19924;-82
2022/10/26 00:19:19;;;;;;;;;;;10.70;99.90;;;;;;5076939;28;19920;-82
2022/10/26 00:21:44;;;;;;;;;;;10.80;99.90;;;;;;5081129;28;19931;-83
2022/10/26 00:24:11;;;;;;;;;;;10.70;99.90;;;;;;5073900;28;20289;-83
2022/10/26 00:26:36;;;;;;;;;;;10.70;99.90;;;;;;5077333;28;19913;-82
2022/10/26 00:29:02;;;;;;;;;;;10.70;99.90;;;;;;5079787;28;19919;-83
2022/10/26 00:31:28;;;;;;;;;;;10.80;99.90;;;;;;5077203;28;20399;-82
2022/10/26 00:33:54;;;;;;;;;;;10.90;99.90;;;;;;5073772;28;20016;-82
2022/10/26 00:36:19;;;;;;;;;;;10.70;99.90;;;;;;5081890;28;19955;-82
2022/10/26 00:38:49;;;;;;;;;;;10.80;99.90;;;;;;5072689;28;20351;-82
2022/10/26 00:41:15;;;;;;;;;;;10.90;99.90;;;;;;5075750;28;19916;-82
2022/10/26 00:43:40;;;;;;;;;;;10.90;99.90;;;;;;5076119;28;20287;-82
2022/10/26 00:46:26;;;;;;;;;;;10.80;99.90;;;;;;5073085;28;19923;-83
2022/10/26 00:49:00;;;;;;;;;;;10.90;99.90;;;;;;5061615;28;20403;-83
2022/10/26 00:51:31;;;;;;;;;;;10.80;99.90;;;;;;5063832;28;19931;-82
2022/10/26 00:53:57;;;;;;;;;;;10.80;99.90;;;;;;5076247;28;19917;-83
2022/10/26 00:56:22;;;;;;;;;;;10.80;99.90;;;;;;5071477;28;20436;-82
2022/10/26 00:58:48;;;;;;;;;;;10.80;99.90;;;;;;5064419;28;19924;-82
2022/10/26 01:01:14;;;;;;;;;;;10.70;99.90;;;;;;5058541;28;19921;-83
2022/10/26 01:03:39;;;;;;;;;;;10.80;99.90;;;;;;5057966;28;19920;-82
2022/10/26 01:06:05;;;;;;;;;;;10.70;99.90;;;;;;5074999;28;20295;-83
2022/10/26 01:08:31;;;;;;;;;;;10.60;99.90;;;;;;5077898;28;19921;-83
2022/10/26 01:10:57;;;;;;;;;;;10.50;99.90;;;;;;5074561;28;20535;-83
2022/10/26 01:13:23;;;;;;;;;;;10.50;99.90;;;;;;5083121;28;19920;-83
2022/10/26 01:15:55;;;;;;;;;;;10.60;99.90;;;;;;5082296;28;20435;-83
2022/10/26 01:18:27;;;;;;;;;;;10.60;99.90;;;;;;5088181;28;20580;-83
2022/10/26 01:20:52;;;;;;;;;;;10.70;99.90;;;;;;5090199;28;20497;-83
2022/10/26 01:23:21;;;;;;;;;;;10.60;99.90;;;;;;5072458;28;19964;-82
2022/10/26 01:25:55;;;;;;;;;;;10.60;99.90;;;;;;5071008;28;19920;-82
2022/10/26 01:28:30;;;;;;;;;;;10.70;99.90;;;;;;5079020;28;19912;-82
2022/10/26 01:30:57;;;;;;;;;;;10.50;99.90;;;;;;5073802;28;19921;-81
2022/10/26 01:33:37;;;;;;;;;;;10.60;99.90;;;;;;5073372;28;19959;-81
2022/10/26 01:36:02;;;;;;;;;;;10.50;99.90;;;;;;5080491;28;19916;-82
2022/10/26 01:38:53;;;;;;;;;;;10.50;99.90;;;;;;5075031;28;19924;-82
2022/10/26 01:41:24;;;;;;;;;;;10.60;99.90;;;;;;5068096;28;19947;-82
2022/10/26 01:43:55;;;;;;;;;;;10.50;99.90;;;;;;5074856;28;20086;-82
2022/10/26 01:46:22;;;;;;;;;;;10.40;99.90;;;;;;5073914;28;20408;-82
2022/10/26 01:48:49;;;;;;;;;;;10.40;99.90;;;;;;5076413;28;20379;-82
2022/10/26 01:51:15;;;;;;;;;;;10.30;99.90;;;;;;5080009;28;19924;-82
2022/10/26 01:53:43;;;;;;;;;;;10.30;99.90;;;;;;5071270;28;20007;-82
2022/10/26 01:56:12;;;;;;;;;;;10.10;99.90;;;;;;5069562;28;20198;-82
2022/10/26 01:58:47;;;;;;;;;;;10.10;99.90;;;;;;5080664;28;19912;-82
2022/10/26 02:01:18;;;;;;;;;;;10.00;99.90;;;;;;5068767;28;19924;-82
2022/10/26 02:03:59;;;;;;;;;;;10.00;99.90;;;;;;5069264;28;19927;-82
2022/10/26 02:06:44;;;;;;;;;;;10.00;99.90;;;;;;5072356;28;19963;-82
2022/10/26 02:09:10;;;;;;;;;;;10.00;99.90;;;;;;5077646;28;19979;-82
2022/10/26 02:11:45;;;;;;;;;;;10.00;99.90;;;;;;5075773;28;20264;-81
2022/10/26 02:14:30;;;;;;;;;;;10.00;99.90;;;;;;5079907;28;20040;-82
2022/10/26 02:16:57;;;;;;;;;;;10.00;99.90;;;;;;5071093;28;20015;-82
2022/10/26 02:19:42;;;;;;;;;;;10.00;99.90;;;;;;5077949;28;19995;-82
2022/10/26 02:22:15;;;;;;;;;;;10.00;99.90;;;;;;5070206;28;20402;-81
2022/10/26 02:24:41;;;;;;;;;;;10.00;99.90;;;;;;5077709;28;19916;-82
2022/10/26 02:27:10;;;;;;;;;;;10.00;99.90;;;;;;5069732;28;19935;-82
2022/10/26 02:29:36;;;;;;;;;;;10.00;99.90;;;;;;5066558;28;19927;-82
2022/10/26 02:32:02;;;;;;;;;;;9.90;99.90;;;;;;5065125;28;19921;-82
2022/10/26 02:34:29;;;;;;;;;;;9.80;99.90;;;;;;5060113;28;19913;-83
2022/10/26 02:36:56;;;;;;;;;;;9.70;99.90;;;;;;5081586;28;19924;-82
2022/10/26 02:39:22;;;;;;;;;;;9.70;99.90;;;;;;5073326;28;19981;-82
2022/10/26 02:41:49;;;;;;;;;;;9.70;99.90;;;;;;5070942;28;19928;-82
2022/10/26 02:44:14;;;;;;;;;;;9.70;99.90;;;;;;5063014;28;20045;-82
2022/10/26 02:46:41;;;;;;;;;;;9.70;99.90;;;;;;5073058;28;20371;-83
2022/10/26 02:49:06;;;;;;;;;;;9.60;99.90;;;;;;5080368;28;19924;-82
2022/10/26 02:51:32;;;;;;;;;;;9.50;99.90;;;;;;5072635;28;19923;-82
2022/10/26 02:54:00;;;;;;;;;;;9.60;99.90;;;;;;5072352;28;19920;-82
2022/10/26 02:56:32;;;;;;;;;;;9.70;99.90;;;;;;5076572;28;19918;-82
2022/10/26 02:59:00;;;;;;;;;;;9.80;99.90;;;;;;5078255;28;19995;-82
2022/10/26 03:01:26;;;;;;;;;;;9.80;99.90;;;;;;5071799;28;20011;-82
2022/10/26 03:03:55;;;;;;;;;;;9.90;99.90;;;;;;5073926;28;19952;-82
2022/10/26 03:06:22;;;;;;;;;;;9.90;99.90;;;;;;5077486;28;19969;-82
2022/10/26 03:08:47;;;;;;;;;;;9.90;99.90;;;;;;5069710;28;19913;-82
2022/10/26 03:11:13;;;;;;;;;;;10.00;99.90;;;;;;5067847;28;19916;-82
2022/10/26 03:13:38;;;;;;;;;;;10.00;99.90;;;;;;5061816;28;19978;-82
2022/10/26 03:16:04;;;;;;;;;;;10.00;99.90;;;;;;5069527;28;20022;-82
2022/10/26 03:18:29;;;;;;;;;;;10.00;99.90;;;;;;5070714;28;19977;-83
2022/10/26 03:20:55;;;;;;;;;;;10.00;99.90;;;;;;5074178;28;20015;-82
2022/10/26 03:23:20;;;;;;;;;;;10.00;99.90;;;;;;5072580;28;19920;-82
2022/10/26 03:25:46;;;;;;;;;;;10.10;99.90;;;;;;5072504;28;19928;-82
2022/10/26 03:28:11;;;;;;;;;;;10.10;99.90;;;;;;5062947;28;19917;-83
2022/10/26 03:30:37;;;;;;;;;;;10.10;99.90;;;;;;5072167;28;20377;-82
2022/10/26 03:33:02;;;;;;;;;;;10.30;99.90;;;;;;5071545;28;19917;-82
2022/10/26 03:35:28;;;;;;;;;;;10.30;99.90;;;;;;5080896;28;19916;-82
2022/10/26 03:37:53;;;;;;;;;;;10.40;99.90;;;;;;5073080;28;19951;-82
2022/10/26 03:40:19;;;;;;;;;;;10.40;99.90;;;;;;5070584;28;19916;-82
2022/10/26 03:42:44;;;;;;;;;;;10.50;99.90;;;;;;5061472;28;19951;-82
2022/10/26 03:45:10;;;;;;;;;;;10.50;99.90;;;;;;5076777;28;19931;-82
2022/10/26 03:47:42;;;;;;;;;;;10.50;99.90;;;;;;5069408;28;19920;-82
2022/10/26 03:50:08;;;;;;;;;;;10.50;99.90;;;;;;5085328;28;20375;-83
2022/10/26 03:52:34;;;;;;;;;;;10.50;99.90;;;;;;5078376;28;19912;-81
2022/10/26 03:54:59;;;;;;;;;;;10.50;99.90;;;;;;5075752;28;20456;-82
2022/10/26 03:57:25;;;;;;;;;;;10.50;99.90;;;;;;5097970;28;19920;-82
2022/10/26 03:59:50;;;;;;;;;;;10.50;99.90;;;;;;5078665;28;20517;-82
2022/10/26 04:02:16;;;;;;;;;;;10.50;99.90;;;;;;5069337;28;19924;-82
2022/10/26 04:04:41;;;;;;;;;;;10.40;99.90;;;;;;5075285;28;20023;-82
2022/10/26 04:07:07;;;;;;;;;;;10.40;99.90;;;;;;5073319;28;20364;-82
2022/10/26 04:09:32;;;;;;;;;;;10.40;99.90;;;;;;5069091;28;19921;-83
2022/10/26 04:11:58;;;;;;;;;;;10.40;99.90;;;;;;5067056;28;19924;-83
2022/10/26 04:14:23;;;;;;;;;;;10.40;99.90;;;;;;5058670;28;20424;-81
2022/10/26 04:16:49;;;;;;;;;;;10.30;99.90;;;;;;5071277;28;19920;-82
2022/10/26 04:19:15;;;;;;;;;;;10.40;99.90;;;;;;5074487;28;19924;-82
2022/10/26 04:21:40;;;;;;;;;;;10.30;99.90;;;;;;5073008;28;20498;-82
2022/10/26 04:24:06;;;;;;;;;;;10.30;99.90;;;;;;5058080;28;19925;-82
2022/10/26 04:26:31;;;;;;;;;;;10.30;99.90;;;;;;5066502;28;20535;-82
2022/10/26 04:28:56;;;;;;;;;;;10.30;99.90;;;;;;5057008;28;19917;-82
2022/10/26 04:31:22;;;;;;;;;;;10.30;99.90;;;;;;5078156;28;19923;-82
2022/10/26 04:33:47;;;;;;;;;;;10.30;99.90;;;;;;5074135;28;20381;-82
2022/10/26 04:36:13;;;;;;;;;;;10.30;99.90;;;;;;5076923;28;20376;-82
2022/10/26 04:38:38;;;;;;;;;;;10.30;99.90;;;;;;5068307;28;20030;-82
2022/10/26 04:41:04;;;;;;;;;;;10.30;99.90;;;;;;5058136;28;19950;-82
2022/10/26 04:43:29;;;;;;;;;;;10.30;99.90;;;;;;5063560;28;20307;-82
2022/10/26 04:45:56;;;;;;;;;;;10.40;99.90;;;;;;5068619;28;20003;-81
2022/10/26 04:48:21;;;;;;;;;;;10.40;99.90;;;;;;5068074;28;19920;-82
2022/10/26 04:50:47;;;;;;;;;;;10.40;99.90;;;;;;5074205;28;19920;-82
2022/10/26 04:53:12;;;;;;;;;;;10.40;99.90;;;;;;5074104;28;19920;-81
2022/10/26 04:55:38;;;;;;;;;;;10.40;99.90;;;;;;5069504;28;21283;-82
2022/10/26 04:58:03;;;;;;;;;;;10.40;99.90;;;;;;5069784;28;19999;-82
2022/10/26 05:00:31;;;;;;;;;;;10.40;99.90;;;;;;5073013;28;19935;-82
2022/10/26 05:03:00;;;;;;;;;;;10.40;99.90;;;;;;5070374;28;20462;-82
2022/10/26 05:05:26;;;;;;;;;;;10.50;99.90;;;;;;5074124;28;19936;-81
2022/10/26 05:07:55;;;;;;;;;;;10.50;99.90;;;;;;5077991;28;20295;-82
2022/10/26 05:10:20;;;;;;;;;;;10.50;99.90;;;;;;5063242;28;20640;-83
2022/10/26 05:12:53;;;;;;;;;;;10.60;99.90;;;;;;5064548;28;19966;-83
2022/10/26 05:15:18;;;;;;;;;;;10.60;99.90;;;;;;5062400;28;20023;-83
2022/10/26 05:17:44;;;;;;;;;;;10.60;99.90;;;;;;5069600;28;20673;-83
2022/10/26 05:20:12;;;;;;;;;;;10.70;99.90;;;;;;5083468;28;20002;-82
2022/10/26 05:22:38;;;;;;;;;;;10.70;99.90;;;;;;5057658;28;20072;-82
2022/10/26 05:25:04;;;;;;;;;;;10.70;99.90;;;;;;5066309;28;19916;-84
2022/10/26 05:27:29;;;;;;;;;;;10.70;99.90;;;;;;5056542;28;19920;-81
2022/10/26 05:29:55;;;;;;;;;;;10.80;99.90;;;;;;5072905;28;19921;-78
2022/10/26 05:32:20;;;;;;;;;;;10.80;99.90;;;;;;5056611;28;19928;-79
2022/10/26 05:34:46;;;;;;;;;;;10.80;99.90;;;;;;5074746;28;19965;-82
2022/10/26 05:37:11;;;;;;;;;;;10.80;99.90;;;;;;5061639;28;20307;-79
2022/10/26 05:39:37;;;;;;;;;;;10.90;99.90;;;;;;5066846;28;19928;-82
2022/10/26 05:42:02;;;;;;;;;;;10.80;99.90;;;;;;5086107;28;19986;-80
2022/10/26 05:44:28;;;;;;;;;;;10.80;99.90;;;;;;5074840;28;19942;-80
2022/10/26 05:46:53;;;;;;;;;;;10.80;99.90;;;;;;5067535;28;19925;-80
2022/10/26 05:49:19;;;;;;;;;;;10.80;99.90;;;;;;5083835;28;19920;-80
2022/10/26 05:51:44;;;;;;;;;;;10.80;99.90;;;;;;5079903;28;19916;-80
2022/10/26 05:54:10;;;;;;;;;;;10.80;99.90;;;;;;5075064;28;20017;-80
2022/10/26 05:56:36;;;;;;;;;;;10.80;99.90;;;;;;5071629;28;20303;-77
2022/10/26 05:59:03;;;;;;;;;;;10.80;99.90;;;;;;5072369;28;20571;-77
2022/10/26 06:01:37;;;;;;;;;;;10.80;99.90;;;;;;5072097;28;19917;-78
2022/10/26 06:04:20;;;;;;;;;;;10.90;99.90;;;;;;5078313;28;19965;-78
2022/10/26 06:06:47;;;;;;;;;;;10.90;99.90;;;;;;5075242;28;19966;-78
2022/10/26 06:09:13;;;;;;;;;;;11.00;99.90;;;;;;5089903;28;20426;-78
2022/10/26 06:11:39;;;;;;;;;;;11.00;99.90;;;;;;5078285;28;19917;-78
2022/10/26 06:14:06;;;;;;;;;;;11.00;99.90;;;;;;5078679;28;19948;-78
2022/10/26 06:16:44;;;;;;;;;;;11.00;99.90;;;;;;5072950;28;19920;-77
2022/10/26 06:19:33;;;;;;;;;;;11.00;99.90;;;;;;5082255;28;19920;-77
2022/10/26 06:22:17;;;;;;;;;;;11.00;99.90;;;;;;5038790;28;19973;-77
2022/10/26 06:24:42;;;;;;;;;;;11.10;99.90;;;;;;5071412;28;19927;-78
2022/10/26 06:27:33;;;;;;;;;;;11.10;99.90;;;;;;5079707;28;20130;-78
2022/10/26 06:30:00;;;;;;;;;;;11.20;99.90;;;;;;5073794;28;19916;-78
2022/10/26 06:32:26;;;;;;;;;;;11.20;99.90;;;;;;5069177;28;19917;-78
2022/10/26 06:34:54;;;;;;;;;;;11.20;99.90;;;;;;5082443;28;19912;-78
2022/10/26 06:37:20;;;;;;;;;;;11.20;99.90;;;;;;5072659;28;19912;-77
2022/10/26 06:39:47;;;;;;;;;;;11.20;99.90;;;;;;5070360;28;19928;-78
2022/10/26 06:42:13;;;;;;;;;;;11.20;99.90;;;;;;5085107;28;20614;-78
2022/10/26 06:44:39;;;;;;;;;;;11.20;99.90;;;;;;5073429;28;20019;-77
2022/10/26 06:47:06;;;;;;;;;;;11.20;99.90;;;;;;5083247;28;19931;-78
2022/10/26 06:49:48;;;;;;;;;;;11.30;99.90;;;;;;5072521;28;19945;-78
2022/10/26 06:52:16;;;;;;;;;;;11.30;99.90;;;;;;5059216;28;19931;-78
2022/10/26 06:54:51;;;;;;;;;;;11.30;99.90;;;;;;5062329;28;19921;-78
2022/10/26 06:57:20;;;;;;;;;;;11.30;99.90;;;;;;5077466;28;19927;-78
2022/10/26 06:59:53;;;;;;;;;;;11.40;99.90;;;;;;5056804;28;20372;-78
2022/10/26 07:02:18;;;;;;;;;;;11.30;99.90;;;;;;5067734;28;19917;-78
2022/10/26 07:04:44;;;;;;;;;;;11.40;99.90;;;;;;5076959;28;19923;-78
2022/10/26 07:07:11;;;;;;;;;;;11.30;99.90;;;;;;5077898;28;19912;-78
2022/10/26 07:09:36;;;;;;;;;;;11.30;99.90;;;;;;5070219;28;19966;-78
2022/10/26 07:12:02;;;;;;;;;;;11.30;99.90;;;;;;5060489;28;20414;-77
2022/10/26 07:14:27;;;;;;;;;;;11.30;99.90;;;;;;5074081;28;19917;-77
2022/10/26 07:16:53;;;;;;;;;;;11.30;99.90;;;;;;5076417;28;19965;-78
2022/10/26 07:19:19;;;;;;;;;;;11.30;99.90;;;;;;5077311;28;20288;-78
2022/10/26 07:21:44;;;;;;;;;;;11.30;99.90;;;;;;5075994;28;19923;-77
2022/10/26 07:24:10;;;;;;;;;;;11.40;99.90;;;;;;5072093;28;19963;-78
2022/10/26 07:26:35;;;;;;;;;;;11.40;99.90;;;;;;5073683;28;19921;-78
2022/10/26 07:29:01;;;;;;;;;;;11.30;99.90;;;;;;5062028;28;19932;-77
2022/10/26 07:31:26;;;;;;;;;;;11.30;99.90;;;;;;5063006;28;20367;-78
2022/10/26 07:33:52;;;;;;;;;;;11.30;99.90;;;;;;5093705;28;19920;-78
2022/10/26 07:36:18;;;;;;;;;;;11.30;99.90;;;;;;5073482;28;19916;-77
2022/10/26 07:38:43;;;;;;;;;;;11.20;99.90;;;;;;5070948;28;20316;-77
2022/10/26 07:41:09;;;;;;;;;;;11.30;99.90;;;;;;5071094;28;19932;-77
2022/10/26 07:43:34;;;;;;;;;;;11.40;99.90;;;;;;5077363;28;19925;-77
2022/10/26 07:46:00;;;;;;;;;;;11.50;99.90;;;;;;5069730;28;20010;-77
2022/10/26 07:48:25;;;;;;;;;;;11.60;99.90;;;;;;5073283;28;20403;-77
2022/10/26 07:50:51;;;;;;;;;;;11.50;99.90;;;;;;5074681;28;19991;-78
2022/10/26 07:53:16;;;;;;;;;;;11.50;99.90;;;;;;5071821;28;20379;-78
2022/10/26 07:55:42;;;;;;;;;;;11.60;99.90;;;;;;5069810;28;19940;-78
2022/10/26 07:58:07;;;;;;;;;;;11.60;99.90;;;;;;5078428;28;20398;-78
2022/10/26 08:00:33;;;;;;;;;;;11.60;99.90;;;;;;5059777;28;19921;-78
2022/10/26 08:02:58;;;;;;;;;;;11.70;99.90;;;;;;5082636;28;20315;-78
2022/10/26 08:05:24;;;;;;;;;;;11.70;99.90;;;;;;5081559;28;20411;-77
2022/10/26 08:07:50;;;;;;;;;;;11.80;99.90;;;;;;5076493;28;20047;-78
2022/10/26 08:10:15;;;;;;;;;;;11.90;99.90;;;;;;5070563;28;19923;-78
2022/10/26 08:12:41;;;;;;;;;;;12.10;99.90;;;;;;5082143;28;20414;-78
2022/10/26 08:15:07;;;;;;;;;;;12.20;99.90;;;;;;5079429;28;20613;-78
2022/10/26 08:17:32;;;;;;;;;;;12.40;99.90;;;;;;5077321;28;19916;-78
2022/10/26 08:19:58;;;;;;;;;;;12.60;99.90;;;;;;5083414;28;20311;-78
2022/10/26 08:22:24;;;;;;;;;;;12.60;99.90;;;;;;5078082;28;20393;-77
2022/10/26 08:24:49;;;;;;;;;;;12.70;99.90;;;;;;5072610;28;19973;-78
2022/10/26 08:27:15;;;;;;;;;;;12.80;99.90;;;;;;5081246;28;19931;-77
2022/10/26 08:29:41;;;;;;;;;;;12.90;99.90;;;;;;5073430;28;19920;-78
2022/10/26 08:32:07;;;;;;;;;;;12.90;99.90;;;;;;5068285;28;19964;-78
2022/10/26 08:34:33;;;;;;;;;;;13.00;99.90;;;;;;5078401;28;19924;-78
2022/10/26 08:36:58;;;;;;;;;;;13.00;99.90;;;;;;5068222;28;19924;-78
2022/10/26 08:39:27;;;;;;;;;;;13.10;99.90;;;;;;5073986;28;20393;-77
2022/10/26 08:42:01;;;;;;;;;;;13.20;99.90;;;;;;5083253;28;19968;-77
2022/10/26 08:44:29;;;;;;;;;;;13.40;99.90;;;;;;5077068;28;19981;-78
2022/10/26 08:46:59;;;;;;;;;;;13.40;99.90;;;;;;5076615;28;19913;-77
2022/10/26 08:49:38;;;;;;;;;;;13.40;99.90;;;;;;5081239;28;20015;-77
2022/10/26 08:52:04;;;;;;;;;;;13.50;99.90;;;;;;5058709;28;19921;-78
2022/10/26 08:54:36;;;;;;;;;;;13.60;99.90;;;;;;5070718;28;20007;-77
2022/10/26 08:57:10;;;;;;;;;;;13.70;99.90;;;;;;5066567;28;19913;-77
2022/10/26 08:59:35;;;;;;;;;;;13.80;99.90;;;;;;5079378;28;19939;-77
2022/10/26 09:02:01;;;;;;;;;;;13.90;99.90;;;;;;5069524;28;20379;-77
2022/10/26 09:04:27;;;;;;;;;;;13.90;99.90;;;;;;5086084;28;19930;-77
2022/10/26 09:07:06;;;;;;;;;;;14.00;99.90;;;;;;5080084;28;19918;-77
2022/10/26 09:09:34;;;;;;;;;;;14.10;99.90;;;;;;5070296;28;19916;-77
2022/10/26 09:12:13;;;;;;;;;;;14.20;99.90;;;;;;5083425;28;20059;-77
2022/10/26 09:14:59;;;;;;;;;;;14.30;99.90;;;;;;5069361;28;19916;-77
2022/10/26 09:17:28;;;;;;;;;;;14.30;99.90;;;;;;5067922;28;20374;-77
2022/10/26 09:20:11;;;;;;;;;;;14.30;99.90;;;;;;5077449;28;19991;-77
2022/10/26 09:22:49;;;;;;;;;;;14.40;99.90;;;;;;5073634;28;19929;-77
2022/10/26 09:25:22;;;;;;;;;;;14.50;99.90;;;;;;5072494;28;20403;-77
2022/10/26 09:27:50;;;;;;;;;;;14.70;99.90;;;;;;5077650;28;20010;-77
2022/10/26 09:30:17;;;;;;;;;;;14.80;99.90;;;;;;5062841;28;19930;-78
2022/10/26 09:32:48;;;;;;;;;;;15.00;99.90;;;;;;5072396;28;19923;-78
2022/10/26 09:35:28;;;;;;;;;;;15.40;99.90;;;;;;5081546;28;19917;-77
2022/10/26 09:37:57;;;;;;;;;;;15.60;99.70;;;;;;5075358;28;19928;-77
2022/10/26 09:40:22;;;;;;;;;;;15.90;97.70;;;;;;5075802;28;19916;-77
2022/10/26 09:42:48;;;;;;;;;;;15.90;97.40;;;;;;5083403;28;20124;-77
2022/10/26 09:45:23;;;;;;;;;;;16.00;97.20;;;;;;5075663;28;20015;-77
2022/10/26 09:47:51;;;;;;;;;;;15.90;99.90;;;;;;5074391;28;19919;-77
2022/10/26 09:50:16;;;;;;;;;;;15.80;98.90;;;;;;5082442;28;19926;-78
2022/10/26 09:52:42;;;;;;;;;;;15.90;97.00;;;;;;5074123;28;19931;-78
2022/10/26 09:55:11;;;;;;;;;;;15.80;95.20;;;;;;5067005;28;20454;-78
2022/10/26 09:57:38;;;;;;;;;;;16.10;99.90;;;;;;5072418;28;19923;-78
2022/10/26 10:00:04;;;;;;;;;;;16.00;97.30;;;;;;5074562;28;20003;-78
2022/10/26 10:02:37;;;;;;;;;;;15.90;96.00;;;;;;5069273;28;20003;-78
2022/10/26 10:05:20;;;;;;;;;;;16.10;97.10;;;;;;5072299;28;19925;-78
2022/10/26 10:07:46;;;;;;;;;;;16.40;96.60;;;;;;5067286;28;20372;-78
2022/10/26 10:10:19;;;;;;;;;;;16.10;95.80;;;;;;5079821;28;19924;-78
2022/10/26 10:12:45;;;;;;;;;;;16.10;95.00;;;;;;5077910;28;19931;-78
2022/10/26 10:15:21;;;;;;;;;;;16.00;94.80;;;;;;5071007;28;20325;-84
2022/10/26 10:17:48;;;;;;;;;;;16.00;95.90;;;;;;5053463;28;19920;-77
2022/10/26 10:20:17;;;;;;;;;;;16.30;97.30;;;;;;5074240;28;19916;-77
2022/10/26 10:22:55;;;;;;;;;;;16.20;95.60;;;;;;5070548;28;20019;-77
2022/10/26 10:25:22;;;;;;;;;;;16.20;95.50;;;;;;5067213;28;19920;-88
2022/10/26 10:27:54;;;;;;;;;;;16.30;98.50;;;;;;5065411;28;19920;-78
2022/10/26 10:30:21;;;;;;;;;;;16.50;98.20;;;;;;5070991;28;19963;-78
2022/10/26 10:33:02;;;;;;;;;;;16.70;95.90;;;;;;5082077;28;20407;-78
2022/10/26 10:35:28;;;;;;;;;;;16.70;90.80;;;;;;5071489;28;20011;-78
2022/10/26 10:37:54;;;;;;;;;;;16.80;90.80;;;;;;5074260;28;19916;-78
2022/10/26 10:40:20;;;;;;;;;;;17.10;88.80;;;;;;5061274;28;19924;-78
2022/10/26 10:42:46;;;;;;;;;;;17.20;87.90;;;;;;5075815;28;19926;-78
2022/10/26 10:45:20;;;;;;;;;;;17.00;84.10;;;;;;5074344;28;19924;-81
2022/10/26 10:47:57;;;;;;;;;;;17.20;90.60;;;;;;5072929;28;19924;-78
2022/10/26 10:50:23;;;;;;;;;;;17.40;85.90;;;;;;5071083;28;19920;-77
2022/10/26 10:52:48;;;;;;;;;;;17.40;86.00;;;;;;5064986;28;20380;-77
2022/10/26 10:55:14;;;;;;;;;;;17.20;85.00;;;;;;5069578;28;20015;-78
2022/10/26 10:57:39;;;;;;;;;;;17.10;83.00;;;;;;5078986;28;20034;-77
2022/10/26 11:00:08;;;;;;;;;;;17.00;82.00;;;;;;5064166;28;19960;-76
2022/10/26 11:02:36;;;;;;;;;;;17.10;79.50;;;;;;5075933;28;20002;-77
2022/10/26 11:05:12;;;;;;;;;;;17.20;80.50;;;;;;5073270;28;19920;-74
2022/10/26 11:07:49;;;;;;;;;;;17.20;81.90;;;;;;5069913;28;20003;-79
2022/10/26 11:10:16;;;;;;;;;;;17.20;79.30;;;;;;5077826;28;20023;-78
2022/10/26 11:12:45;;;;;;;;;;;17.30;82.10;;;;;;5075805;28;19913;-79
2022/10/26 11:15:19;;;;;;;;;;;17.20;83.30;;;;;;5073167;28;19913;-78
2022/10/26 11:17:52;;;;;;;;;;;17.30;83.70;;;;;;5068326;28;19924;-78
2022/10/26 11:20:20;;;;;;;;;;;17.50;83.10;;;;;;5080314;28;19938;-78
2022/10/26 11:22:52;;;;;;;;;;;17.70;79.10;;;;;;5072036;28;19920;-79
2022/10/26 11:25:23;;;;;;;;;;;17.60;77.70;;;;;;5078633;28;19926;-79
2022/10/26 11:27:51;;;;;;;;;;;17.60;78.50;;;;;;5062458;28;19922;-74
2022/10/26 11:30:18;;;;;;;;;;;17.80;81.10;;;;;;5068782;28;19927;-75
2022/10/26 11:32:44;;;;;;;;;;;17.80;80.40;;;;;;5068800;28;19935;-75
2022/10/26 11:35:16;;;;;;;;;;;17.80;83.30;;;;;;5070487;28;20474;-75
2022/10/26 11:37:44;;;;;;;;;;;18.00;82.30;;;;;;5070653;28;19964;-74
2022/10/26 11:40:15;;;;;;;;;;;18.50;79.00;;;;;;5079905;28;19928;-75
2022/10/26 11:42:44;;;;;;;;;;;18.70;79.40;;;;;;5078883;28;20003;-75
2022/10/26 11:45:19;;;;;;;;;;;18.60;79.10;;;;;;5060880;28;19924;-74
2022/10/26 11:47:51;;;;;;;;;;;18.40;77.40;;;;;;5069350;28;20345;-74
2022/10/26 11:50:20;;;;;;;;;;;18.20;79.80;;;;;;5078217;28;20116;-74
2022/10/26 11:52:51;;;;;;;;;;;18.20;80.80;;;;;;5070736;28;19918;-74
2022/10/26 11:55:17;;;;;;;;;;;18.10;79.10;;;;;;5080208;28;19928;-74
2022/10/26 11:57:45;;;;;;;;;;;18.10;79.40;;;;;;5071941;28;20016;-74
2022/10/26 12:00:18;;;;;;;;;;;18.30;79.60;;;;;;5074006;28;19917;-75
2022/10/26 12:02:48;;;;;;;;;;;18.50;80.00;;;;;;5071077;28;19921;-75
2022/10/26 12:05:16;;;;;;;;;;;18.60;74.80;;;;;;5059437;28;19928;-77
2022/10/26 12:07:45;;;;;;;;;;;18.60;75.90;;;;;;5068791;28;19920;-77
2022/10/26 12:10:20;;;;;;;;;;;18.60;74.60;;;;;;5073847;28;19926;-77
2022/10/26 12:13:04;;;;;;;;;;;18.80;75.20;;;;;;5068291;28;20311;-77
2022/10/26 12:15:37;;;;;;;;;;;19.20;71.50;;;;;;5072240;28;19917;-77
2022/10/26 12:18:14;;;;;;;;;;;19.60;70.90;;;;;;5071523;28;19928;-78
2022/10/26 12:20:39;;;;;;;;;;;19.60;70.10;;;;;;5066526;28;20617;-77
2022/10/26 12:23:07;;;;;;;;;;;19.50;72.00;;;;;;5062588;28;19920;-77
2022/10/26 12:25:33;;;;;;;;;;;19.40;70.60;;;;;;5081439;28;19945;-77
2022/10/26 12:27:59;;;;;;;;;;;19.40;72.70;;;;;;5079255;28;20019;-77
2022/10/26 12:30:26;;;;;;;;;;;19.20;74.40;;;;;;5053056;28;20327;-77
2022/10/26 12:33:04;;;;;;;;;;;19.20;72.80;;;;;;5065393;28;19912;-77
2022/10/26 12:35:34;;;;;;;;;;;19.20;71.80;;;;;;5056481;28;20630;-77
2022/10/26 12:38:00;;;;;;;;;;;19.20;72.00;;;;;;5069707;28;19928;-77
2022/10/26 12:40:32;;;;;;;;;;;19.20;73.20;;;;;;5080232;28;19912;-78
2022/10/26 12:43:23;;;;;;;;;;;19.20;71.70;;;;;;5071597;28;20375;-77
2022/10/26 12:46:12;;;;;;;;;;;19.20;72.20;;;;;;5068487;28;19916;-80
2022/10/26 12:48:43;;;;;;;;;;;19.20;71.10;;;;;;5069663;28;20504;-77
2022/10/26 12:51:20;;;;;;;;;;;19.30;72.20;;;;;;5078057;28;19916;-78
2022/10/26 12:54:04;;;;;;;;;;;19.40;71.80;;;;;;5070899;28;19916;-77
2022/10/26 12:56:32;;;;;;;;;;;19.40;71.90;;;;;;5069979;28;19947;-77
2022/10/26 12:59:03;;;;;;;;;;;19.50;70.70;;;;;;5071510;28;19913;-78
2022/10/26 13:01:41;;;;;;;;;;;19.50;72.00;;;;;;5073478;28;19916;-77
2022/10/26 13:04:18;;;;;;;;;;;19.70;71.60;;;;;;5069314;28;19912;-77
2022/10/26 13:07:02;;;;;;;;;;;20.10;71.10;;;;;;5078484;28;19927;-77
2022/10/26 13:09:29;;;;;;;;;;;20.00;69.20;;;;;;5070862;28;19912;-77
2022/10/26 13:11:55;;;;;;;;;;;20.00;69.00;;;;;;5073114;28;19917;-77
2022/10/26 13:14:32;;;;;;;;;;;19.90;68.40;;;;;;5071677;28;19916;-77
2022/10/26 13:17:00;;;;;;;;;;;19.90;69.70;;;;;;5071427;28;20447;-77
2022/10/26 13:19:39;;;;;;;;;;;19.90;68.40;;;;;;5070537;28;19909;-81
2022/10/26 13:22:04;;;;;;;;;;;20.10;67.80;;;;;;5076815;28;19916;-78
2022/10/26 13:24:31;;;;;;;;;;;20.20;67.10;;;;;;5079142;28;20439;-81
2022/10/26 13:27:09;;;;;;;;;;;20.80;67.00;;;;;;5074173;28;20369;-79
2022/10/26 13:29:53;;;;;;;;;;;20.90;67.10;;;;;;5075269;28;19938;-79
2022/10/26 13:32:19;;;;;;;;;;;20.70;66.30;;;;;;5074558;28;19931;-79
2022/10/26 13:34:45;;;;;;;;;;;20.30;67.10;;;;;;5077035;28;19916;-78
2022/10/26 13:37:22;;;;;;;;;;;19.70;68.40;;;;;;5074740;28;19955;-80
2022/10/26 13:39:49;;;;;;;;;;;19.50;69.90;;;;;;5067615;28;19913;-78
2022/10/26 13:42:17;;;;;;;;;;;19.40;70.70;;;;;;5077789;28;20387;-78
2022/10/26 13:44:54;;;;;;;;;;;19.20;71.70;;;;;;5073173;28;20635;-78
2022/10/26 13:47:26;;;;;;;;;;;19.10;72.20;;;;;;5080831;28;19920;-78
2022/10/26 13:49:53;;;;;;;;;;;19.40;72.20;;;;;;5067665;28;20385;-78
2022/10/26 13:52:22;;;;;;;;;;;19.60;69.20;;;;;;5069807;28;20042;-78
2022/10/26 13:54:48;;;;;;;;;;;20.00;71.70;;;;;;5068823;28;19920;-78
2022/10/26 13:57:18;;;;;;;;;;;20.00;70.20;;;;;;5067183;28;19912;-78
2022/10/26 13:59:45;;;;;;;;;;;19.70;69.80;;;;;;5073614;28;19916;-78
2022/10/26 14:02:24;;;;;;;;;;;19.40;71.10;;;;;;5070761;28;19927;-78
2022/10/26 14:04:58;;;;;;;;;;;19.30;71.80;;;;;;5070231;28;19931;-78
2022/10/26 14:07:25;;;;;;;;;;;19.00;70.90;;;;;;5072446;28;20008;-84
2022/10/26 14:09:55;;;;;;;;;;;18.90;72.00;;;;;;5070199;28;20295;-78
2022/10/26 14:12:20;;;;;;;;;;;18.90;72.80;;;;;;5079050;28;19999;-78
2022/10/26 14:14:46;;;;;;;;;;;19.00;73.40;;;;;;5063893;28;20069;-78
2022/10/26 14:17:18;;;;;;;;;;;19.10;72.30;;;;;;5079143;28;19916;-79
2022/10/26 14:19:44;;;;;;;;;;;19.40;72.50;;;;;;5079454;28;20007;-85
2022/10/26 14:22:21;;;;;;;;;;;19.70;72.00;;;;;;5058442;28;20016;-86
2022/10/26 14:24:51;;;;;;;;;;;19.60;70.80;;;;;;5075440;28;20003;-82
2022/10/26 14:27:18;;;;;;;;;;;19.60;70.70;;;;;;5081568;28;20287;-84
2022/10/26 14:29:45;;;;;;;;;;;19.70;71.40;;;;;;5073203;28;19923;-93